Latest Coastal Weather Observations for Marion Reef

IDQ60701

Issued at 2:12 pm EST Wednesday 18 January 2017 (issued every 10 minutes, with the page automatically refreshed every 10 minutes)

About coastal observations | Map of coastal stations | Coastal observations for QLD | Marine services | Other Formats
Station Details ID: 200704 Name: MARION REEF Lat: -19.10 Lon: 152.39 Height: 2.0 m
Data from the previous 72 hours. | See also: Recent months for locations in Queensland
Date/Time
EST
Temp
°C
Wind Pressure Rain since
9am
mm
Weather Cloud Vis
km
Sea
Height
m
Swell
Dir  Spd
kts
Gust
kts
hPa Trend Height
m
Period
s
Dir
18/02:00pm 28.9 E 7 9 1010.4 - - - - - - - - -
18/01:30pm 28.8 ESE 7 9 1010.8 - - - - - - - - -
18/01:00pm 28.8 ESE 8 9 1010.9 - - - - - - - - -
18/12:30pm 28.7 ESE 8 10 1011.4 - - - - - - - - -
18/12:00pm 28.6 ESE 8 10 1011.4 - - - - - - - - -
18/11:30am 28.8 E 10 11 1011.8 - - - - - - - - -
18/11:00am 28.7 ESE 8 11 1012.0 - - - - - - - - -
18/10:30am 28.8 ESE 7 9 1012.2 - - - - - - - - -
18/10:00am 28.5 ESE 8 10 1012.1 - - - - - - - - -
18/09:30am 28.6 ESE 9 11 1012.4 - - - - - - - - -
18/09:00am 28.8 E 10 13 1012.4 - - - - - - - - -
18/08:30am 28.4 E 11 13 1012.4 - - - - - - - - -
18/08:00am 28.5 E 12 14 1012.1 - - - - - - - - -
18/07:30am 28.4 E 12 15 1012.0 - - - - - - - - -
18/07:00am 28.6 E 13 15 1011.7 - - - - - - - - -
18/06:30am 28.4 E 14 17 1011.3 - - - - - - - - -
18/06:00am 28.1 E 15 16 1011.1 - - - - - - - - -
18/05:30am 28.1 ESE 16 19 1010.7 - - - - - - - - -
18/05:00am 27.7 SE 14 16 1010.2 - - - - - - - - -
18/04:30am 26.7 SE 15 17 1010.0 - - - - - - - - -
18/04:00am 27.9 SE 16 18 1009.7 - - - - - - - - -
18/03:30am 27.6 ESE 14 17 1009.8 - - - - - - - - -
18/03:00am 27.2 SE 14 17 1009.8 - - - - - - - - -
18/02:30am 27.6 SE 14 18 1010.1 - - - - - - - - -
18/02:00am 27.8 ESE 13 14 1010.3 - - - - - - - - -
18/01:30am 27.7 ESE 13 15 1010.7 - - - - - - - - -
18/01:00am 27.8 ESE 14 16 1010.9 - - - - - - - - -
18/12:30am 27.8 SE 15 18 1011.4 - - - - - - - - -
18/12:00am 28.2 SE 14 17 1011.7 - - - - - - - - -
 
Date/Time
EST
Temp
°C
Wind Pressure Rain since
9am
mm
Weather Cloud Vis
km
Sea
Height
m
Swell
Dir  Spd
kts
Gust
kts
hPa Trend Height
m
Period
s
Dir
17/11:30pm 28.2 SE 15 18 1012.2 - - - - - - - - -
17/11:00pm 27.8 SE 16 19 1012.2 - - - - - - - - -
17/10:30pm 27.4 SE 18 23 1012.6 - - - - - - - - -
17/10:00pm 28.0 SE 17 19 1012.5 - - - - - - - - -
17/09:30pm 27.9 SSE 18 20 1012.5 - - - - - - - - -
17/09:00pm 28.2 SSE 16 19 1012.4 - - - - - - - - -
17/08:30pm 27.8 SSE 15 17 1012.2 - - - - - - - - -
17/08:00pm 27.5 SE 9 18 1012.0 - - - - - - - - -
17/07:30pm 27.9 SSE 16 20 1011.8 - - - - - - - - -
17/07:00pm 28.1 SSE 15 18 1011.6 - - - - - - - - -
17/06:30pm 28.0 S 16 18 1011.6 - - - - - - - - -
17/06:00pm 28.1 S 17 19 1011.3 - - - - - - - - -
17/05:30pm 28.1 S 16 18 1011.2 - - - - - - - - -
17/05:00pm 28.1 S 15 16 1011.0 - - - - - - - - -
17/04:30pm 28.5 S 11 14 1011.2 - - - - - - - - -
17/04:00pm 28.5 S 11 14 1011.0 - - - - - - - - -
17/03:30pm 28.6 SSE 11 13 1011.2 - - - - - - - - -
17/03:00pm 28.4 SSE 12 14 1011.2 - - - - - - - - -
17/02:30pm 28.6 SSE 11 12 1011.5 - - - - - - - - -
17/02:00pm 28.4 SSE 9 11 1011.6 - - - - - - - - -
17/01:30pm 28.4 SE 10 11 1011.8 - - - - - - - - -
17/01:00pm 28.4 SE 10 12 1012.0 - - - - - - - - -
17/12:30pm 28.3 SE 12 14 1012.4 - - - - - - - - -
17/12:00pm 28.6 SSE 11 13 1012.6 - - - - - - - - -
17/11:30am 28.5 SE 10 12 1012.9 - - - - - - - - -
17/11:00am 28.2 SE 11 12 1012.9 - - - - - - - - -
17/10:30am 28.1 SE 10 11 1013.2 - - - - - - - - -
17/10:00am 28.1 SE 10 13 1013.2 - - - - - - - - -
17/09:30am 28.2 ESE 11 12 1013.4 - - - - - - - - -
17/09:00am 27.8 SE 12 14 1013.1 - - - - - - - - -
17/08:30am 27.9 ESE 11 13 1013.0 - - - - - - - - -
17/08:00am 27.9 SE 13 15 1012.8 - - - - - - - - -
17/07:30am 28.0 ESE 14 17 1012.6 - - - - - - - - -
17/07:00am 28.2 ESE 14 17 1012.4 - - - - - - - - -
17/06:30am 27.9 SE 15 18 1012.0 - - - - - - - - -
17/06:00am 27.8 SE 17 19 1011.7 - - - - - - - - -
17/05:30am 27.7 ESE 16 19 1011.4 - - - - - - - - -
17/05:00am 27.6 SE 15 18 1010.8 - - - - - - - - -
17/04:30am 27.6 SE 15 17 1010.6 - - - - - - - - -
17/04:00am 27.8 SE 14 17 1010.5 - - - - - - - - -
17/03:30am 27.7 SE 14 16 1010.6 - - - - - - - - -
17/03:00am 27.6 SE 13 16 1010.5 - - - - - - - - -
17/02:30am 27.7 SE 13 15 1010.6 - - - - - - - - -
17/02:00am 27.8 SE 13 15 1010.7 - - - - - - - - -
17/01:30am 27.8 SE 13 15 1011.0 - - - - - - - - -
17/01:00am 27.6 SE 13 15 1011.1 - - - - - - - - -
17/12:30am 27.7 SSE 13 15 1011.5 - - - - - - - - -
17/12:00am 27.7 SSE 13 16 1011.7 - - - - - - - - -
 
Date/Time
EST
Temp
°C
Wind Pressure Rain since
9am
mm
Weather Cloud Vis
km
Sea
Height
m
Swell
Dir  Spd
kts
Gust
kts
hPa Trend Height
m
Period
s
Dir
16/11:30pm 27.9 SE 13 15 1012.0 - - - - - - - - -
16/11:00pm 27.9 SE 14 15 1012.1 - - - - - - - - -
16/10:30pm 28.0 SE 12 15 1012.5 - - - - - - - - -
16/10:00pm 27.8 SE 11 13 1012.5 - - - - - - - - -
16/09:30pm 28.1 SE 12 14 1012.3 - - - - - - - - -
16/09:00pm 28.0 SE 12 14 1012.0 - - - - - - - - -
16/08:30pm 28.2 SE 11 13 1011.8 - - - - - - - - -
16/08:00pm 28.2 ESE 9 10 1011.7 - - - - - - - - -
16/07:30pm 28.3 ESE 9 11 1011.4 - - - - - - - - -
16/07:00pm 28.2 SE 9 12 1011.1 - - - - - - - - -
16/06:30pm 28.4 ESE 10 11 1010.9 - - - - - - - - -
16/06:00pm 28.6 ESE 10 12 1010.6 - - - - - - - - -
16/05:30pm 28.4 ESE 11 13 1010.2 - - - - - - - - -
16/05:00pm 28.5 ESE 11 13 1009.9 - - - - - - - - -
16/04:30pm 28.4 ESE 12 14 1009.8 - - - - - - - - -
16/04:00pm 28.5 ESE 13 15 1009.3 - - - - - - - - -
16/03:30pm 28.5 E 12 14 1009.6 - - - - - - - - -
16/03:00pm 28.4 E 11 14 1009.5 - - - - - - - - -
16/02:30pm 27.3 E 16 18 1009.7 - - - - - - - - -
16/02:00pm 27.7 E 14 17 1009.9 - - - - - - - - -
16/01:30pm 28.0 E 15 17 1010.0 - - - - - - - - -
16/01:00pm 27.8 E 15 17 1010.1 - - - - - - - - -
16/12:30pm 28.3 E 12 14 1010.4 - - - - - - - - -
16/12:00pm 28.5 E 8 9 1010.5 - - - - - - - - -
16/11:30am 28.1 ENE 11 12 1010.8 - - - - - - - - -
16/11:00am 28.1 E 10 8 1010.8 - - - - - - - - -
16/10:30am 27.9 SE 11 13 1011.1 - - - - - - - - -
16/10:00am 28.4 ESE 10 10 1011.0 - - - - - - - - -
16/09:30am 28.7 E 8 10 1011.1 - - - - - - - - -
16/09:00am 28.7 E 10 11 1011.0 - - - - - - - - -
16/08:30am 28.1 SSE 4 5 1011.0 - - - - - - - - -
16/08:00am 27.5 E 11 14 1010.7 - - - - - - - - -
16/07:30am 27.8 E 7 9 1010.5 - - - - - - - - -
16/07:00am 28.3 E 7 8 1010.3 - - - - - - - - -
16/06:30am 28.1 SSE 4 5 1010.1 - - - - - - - - -
16/06:00am 27.8 SSE 4 5 1009.7 - - - - - - - - -
16/05:30am 27.6 ENE 5 6 1009.2 - - - - - - - - -
16/05:00am 27.5 NE 5 6 1008.8 - - - - - - - - -
16/04:30am 27.4 W 5 7 1008.3 - - - - - - - - -
16/04:00am 27.7 E 5 7 1007.9 - - - - - - - - -
16/03:30am 27.8 NE 7 9 1008.0 - - - - - - - - -
16/03:00am 28.2 E 7 9 1007.9 - - - - - - - - -
16/02:30am 28.1 ESE 6 7 1008.3 - - - - - - - - -
16/02:00am 28.1 NE 7 8 1008.5 - - - - - - - - -
16/01:30am 28.0 SE 5 9 1009.0 - - - - - - - - -
16/01:00am 28.1 S 3 4 1009.3 - - - - - - - - -
16/12:30am 27.9 SW 4 5 1009.2 - - - - - - - - -
16/12:00am 28.1 NNW 5 6 1009.3 - - - - - - - - -
 
Date/Time
EST
Temp
°C
Wind Pressure Rain since
9am
mm
Weather Cloud Vis
km
Sea
Height
m
Swell
Dir  Spd
kts
Gust
kts
hPa Trend Height
m
Period
s
Dir
15/11:30pm 28.0 N 8 10 1009.8 - - - - - - - - -
15/11:00pm 28.2 N 9 10 1009.9 - - - - - - - - -
15/10:30pm 28.0 N 10 11 1010.2 - - - - - - - - -
15/10:00pm 28.0 N 11 13 1010.2 - - - - - - - - -
15/09:30pm 28.2 N 12 14 1010.3 - - - - - - - - -
15/09:00pm 28.4 N 12 14 1010.1 - - - - - - - - -
15/08:30pm 28.1 N 14 16 1009.9 - - - - - - - - -
15/08:00pm 28.2 NNE 11 11 1009.2 - - - - - - - - -
15/07:30pm 28.3 ENE 9 11 1008.3 - - - - - - - - -
15/07:00pm 28.9 NE 10 11 1008.5 - - - - - - - - -
15/06:30pm 28.8 NNE 10 11 1008.6 - - - - - - - - -
15/06:00pm 29.2 NNE 10 11 1007.9 - - - - - - - - -
15/05:30pm 28.9 NNE 9 10 1008.0 - - - - - - - - -
15/05:00pm 29.4 NNE 7 8 1007.7 - - - - - - - - -
15/04:30pm 29.1 N 7 8 1007.7 - - - - - - - - -
15/04:00pm 30.0 NE 6 7 1007.5 - - - - - - - - -
15/03:30pm 29.1 NNE 6 7 1007.7 - - - - - - - - -
15/03:00pm 30.3 NE 6 8 1007.8 - - - - - - - - -
15/02:30pm 29.2 ENE 6 7 1007.9 - - - - - - - - -

Other Formats:

Comma delimited format used in spreadsheet applications
http://www.bom.gov.au/fwo/IDQ60701/IDQ60701.94298.axf

JavaScript Object Notation format (JSON) in row-major order
http://www.bom.gov.au/fwo/IDQ60701/IDQ60701.94298.json